Foret Viam-Lestard (19) - H

Date : 30/06/2012
Distance : 3,900 km

Place Nom Licence Catégorie Club Temps min/km CN à J-60 Points Différence Nouveau CN
1 EVEN Gabriel 2789 H70 2206BR 0:51:02 13'05 5657 4843 -814 5522
2 HABERKORN Didier 2716 H70 2105BO 0:54:21 13'56 3691 4547 +856 4023
3 DEVILLE Nelly 2401 D60 5402LO 0:54:21 13'56 4823 4547 -276 4924
4 SINIBALDI Marc 1347 H70 3801RA 0:54:52 14'04 4015 4504 +489 5260
5 DUBROCA Monique 633 D65 3308AQ 0:55:03 14'06 4800 4489 -311 4912
6 HELIOT Claude 2349 H70 6906RA 0:57:42 14'47 2775 4283 +1508 3852
7 CROCHET Gerard 2817 H70 1705PC 0:58:39 15'02 4187 4214 +27 4364
8 GERBAUT J-Pierre 962 H70 4012AQ 1:01:08 15'40 4120 4043 -77 4112
9 CHALOPIN Catherine 3674 D60 2105BO 1:01:21 15'43 3898 4028 +130 3988
10 DOMENICI J-Claude 1052 H70 1705PC 1:01:46 15'50 3776 4001 +225 3862
11 ROBERT Francoise 6491 D60 6913RA 1:03:59 16'24 4475 3863 -612 4475
12 GANDON J-Claude 249 H70 6906RA 1:04:04 16'25 4163 3858 -305 4672
13 LARMINACH Andre 646 H70 3308AQ 1:06:00 16'55 4762 3745 -1017 4762
14 MOULIERE M-Bernadette 2888 D65 0207PI 1:07:54 17'24 3466 3640 +174 3539
15 JEANPIERRE M-Therese 3302 D65 8809LO 1:09:29 17'48 3105 3557 +452 3383
16 ANTOINE Regis 1276 H70 7108BO 1:10:37 18'06 3678 3500 -178 3767
17 FRANTZ Francoise 6886 D65 2904BR 1:12:14 18'31 4054 3421 -633 4054
18 CREUSAT Fanny 25989 D40 8809LO 1:15:29 19'21 0 3274 3165
19 ENARD Monique 2664 D60 2101BO 1:16:03 19'30 3184 3250 +66 3743
20 RICHARD Nicole 14245 D60 0207PI 1:16:31 19'37 3527 3230 -297 3527
21 ANGLADE Françoise 22255 D45 5604BR 1:16:40 19'39 3752 3224 -528 3752
22 BEAUVISAGE Fabienne 13740 D45 7807IF 1:18:54 20'13 3020 3132 +112 3103
23 ELIAS Jean-claude 24745 H70 1307PR 1:20:25 20'37 3513 3073 -440 4043
24 ROLLET Marie-Madeleine 2413 D65 5415LO 1:20:43 20'41 2283 3062 +779 2747
25 GENIN Véronique 22367 D35 3318AQ 1:21:02 20'46 2709 3050 +341 2887
26 GROSJEAN A-Marie 12059 D70 6913RA 1:21:34 20'54 2838 3030 +192 3057
27 KIEFFER Mireille 2680 D65 2101BO 1:25:13 21'51 2734 2900 +166 2836
28 PROST Gisele 2182 D60 9307IF 1:28:38 22'43 2845 2788 -57 2848
29 ABISSE Gisele 701 D65 2508FC 1:31:10 23'22 3558 2711 -847 3729
30 PEETERS Simone 295 D70 7305RA 1:32:09 23'37 2413 2682 +269 2352
31 DRAULT J-Raymond 4234 H70 8702LI 1:38:24 25'13 2975 2512 -463 3156
32 LARMINACH Genevieve 647 D65 3308AQ 1:38:49 25'20 2548 2501 -47 2565
33 VILLATTE Fabienne 24356 D40 2406AQ 1:39:41 25'33 2495 2479 -16 2537
34 PROST Daniel 2181 H70 9307IF 1:48:43 27'52 2804 2273 -531 3046
35 DENIS Martine 12377 D65 9307IF 1:55:01 29'29 2959 2149 -810 2986
36 DODIN Genevieve 4392 D60 8809LO 1:59:37 30'40 2505 2066 -439 2588
37 THIEBAULT M-Paule 4490 D60 6804AL 2:05:27 32'10 2337 1970 -367 2503
38 ALLANCON Claudine 14632 D60 2906BR 2:08:13 32'52 2114 1928 -186 2100
39 LUDEWIG-JAMES Carol 15894 D70 5907NO 2:18:07 35'24 2406 1789 -617 2388
FINO Béatrice 1674 D40 0111RA abandon None 2445 0 2626
BAUDOIN Annie 16634 D60 0615AZ abandon None 3192 0 3545